Time;durP1;ratioP1;P1;durP2;ratioP2;P2;SDS_P1;SDS_P2;PMS_P1;PMS_P2;Temp;Humidity;BMP_temperature;BMP_pressure;BME280_temperature;BME280_humidity;BME280_pressure;Samples;Min_cycle;Max_cycle;Signal;HPM_P1;HPM_P2
2023/10/13 00:00:28;;;;;;;0.40;0.40;;;;;;;15.53;85.46;97463.41;5048963;28;20041;-74
2023/10/13 00:03:00;;;;;;;0.22;0.22;;;;;;;15.52;85.58;97466.31;5052025;28;20406;-74
2023/10/13 00:05:30;;;;;;;0.50;0.50;;;;;;;15.52;85.70;97459.06;5057944;28;20119;-73
2023/10/13 00:08:00;;;;;;;0.40;0.40;;;;;;;15.52;85.58;97452.88;5054681;28;20037;-73
2023/10/13 00:10:28;;;;;;;0.57;0.57;;;;;;;15.52;85.62;97456.38;5058981;28;20044;-72
2023/10/13 00:13:11;;;;;;;0.55;0.55;;;;;;;15.52;85.68;97459.06;5056598;28;20041;-73
2023/10/13 00:15:45;;;;;;;0.30;0.30;;;;;;;15.55;85.49;97449.75;5057881;28;20821;-74
2023/10/13 00:18:13;;;;;;;0.47;0.47;;;;;;;15.53;85.62;97451.81;5051173;28;20499;-74
2023/10/13 00:20:48;;;;;;;0.45;0.45;;;;;;;15.50;85.74;97463.03;5060583;28;20059;-74
2023/10/13 00:23:20;;;;;;;0.52;0.50;;;;;;;15.43;85.92;97465.84;5055538;28;20094;-74
2023/10/13 00:25:56;;;;;;;0.52;0.52;;;;;;;15.44;86.12;97459.41;5059755;28;20495;-73
2023/10/13 00:28:26;;;;;;;0.50;0.50;;;;;;;15.42;86.08;97469.56;5057479;28;20939;-74
2023/10/13 00:31:00;;;;;;;0.30;0.30;;;;;;;15.42;86.06;97470.38;5056677;28;20087;-74
2023/10/13 00:33:32;;;;;;;0.43;0.43;;;;;;;15.39;86.10;97460.06;5047356;28;20416;-73
2023/10/13 00:36:01;;;;;;;0.50;0.50;;;;;;;15.43;86.05;97463.16;5055128;28;20544;-72
2023/10/13 00:38:28;;;;;;;0.40;0.40;;;;;;;15.46;86.26;97448.44;5062172;28;20044;-73
2023/10/13 00:41:03;;;;;;;0.50;0.50;;;;;;;15.43;86.43;97465.84;5051740;28;20044;-73
2023/10/13 00:43:34;;;;;;;0.52;0.52;;;;;;;15.39;86.41;97456.56;5053033;28;20110;-73
2023/10/13 00:46:12;;;;;;;0.43;0.43;;;;;;;15.36;86.53;97455.19;5054212;28;20057;-73
2023/10/13 00:48:51;;;;;;;0.50;0.50;;;;;;;15.37;86.48;97456.78;5055455;28;20057;-73
2023/10/13 00:51:32;;;;;;;0.43;0.43;;;;;;;15.40;86.79;97458.22;5051541;28;20407;-73
2023/10/13 00:54:02;;;;;;;0.45;0.45;;;;;;;15.42;86.52;97469.56;5058376;28;20041;-74
2023/10/13 00:56:30;;;;;;;0.60;0.60;;;;;;;15.44;86.47;97472.84;5054925;28;20112;-74
2023/10/13 00:59:02;;;;;;;0.43;0.43;;;;;;;15.46;86.54;97478.00;5051827;28;20080;-75
2023/10/13 01:01:29;;;;;;;0.43;0.43;;;;;;;15.45;86.57;97474.50;5058971;28;20040;-74
2023/10/13 01:04:00;;;;;;;0.32;0.32;;;;;;;15.46;86.70;97473.47;5049629;28;20051;-74
2023/10/13 01:06:28;;;;;;;0.50;0.50;;;;;;;15.47;86.64;97480.44;5059040;28;20538;-75
2023/10/13 01:09:10;;;;;;;0.40;0.40;;;;;;;15.49;86.87;97469.47;5053209;28;20049;-74
2023/10/13 01:11:38;;;;;;;0.52;0.52;;;;;;;15.49;86.60;97477.53;5052926;28;20044;-74
2023/10/13 01:14:07;;;;;;;0.30;0.30;;;;;;;15.47;86.73;97469.69;5056134;28;20396;-75
2023/10/13 01:16:35;;;;;;;0.40;0.40;;;;;;;15.49;86.81;97472.97;5057316;28;20084;-75
2023/10/13 01:19:05;;;;;;;0.55;0.55;;;;;;;15.54;86.74;97461.53;5049133;28;20056;-75
2023/10/13 01:21:33;;;;;;;0.22;0.22;;;;;;;15.51;86.88;97467.38;5054196;28;20456;-75
2023/10/13 01:24:07;;;;;;;0.50;0.50;;;;;;;15.49;87.08;97472.97;5059539;28;20060;-74
2023/10/13 01:26:38;;;;;;;0.47;0.47;;;;;;;15.51;87.01;97470.06;5056097;28;20045;-76
2023/10/13 01:29:13;;;;;;;0.50;0.50;;;;;;;15.49;87.36;97469.47;5056868;28;20052;-75
2023/10/13 01:31:45;;;;;;;0.40;0.40;;;;;;;15.52;87.05;97471.72;5049111;28;20049;-75
2023/10/13 01:34:19;;;;;;;0.40;0.40;;;;;;;15.53;87.18;97459.91;5052224;28;20124;-75
2023/10/13 01:36:47;;;;;;;0.50;0.50;;;;;;;15.52;87.32;97453.69;5051900;28;20455;-75
2023/10/13 01:39:17;;;;;;;0.52;0.52;;;;;;;15.53;87.36;97457.22;5051110;28;20516;-75
2023/10/13 01:41:44;;;;;;;0.30;0.30;;;;;;;15.56;87.04;97464.88;5053115;28;20462;-75
2023/10/13 01:44:12;;;;;;;0.50;0.50;;;;;;;15.59;87.19;97462.50;5051691;28;20064;-74
2023/10/13 01:46:39;;;;;;;0.50;0.50;;;;;;;15.58;86.89;97460.03;5051811;28;20048;-74
2023/10/13 01:49:07;;;;;;;0.30;0.30;;;;;;;15.60;87.31;97463.34;5055901;28;20408;-75
2023/10/13 01:51:35;;;;;;;0.52;0.52;;;;;;;15.61;87.18;97459.59;5052473;28;20113;-76
2023/10/13 01:54:03;;;;;;;0.40;0.40;;;;;;;15.60;86.81;97461.47;5057294;28;20040;-75
2023/10/13 01:56:31;;;;;;;0.45;0.45;;;;;;;15.60;87.02;97457.94;5057488;28;20044;-75
2023/10/13 01:58:59;;;;;;;0.57;0.57;;;;;;;15.62;87.14;97456.69;5057653;28;20090;-74
2023/10/13 02:01:34;;;;;;;0.40;0.40;;;;;;;15.63;86.95;97450.25;5067844;28;20067;-73
2023/10/13 02:04:03;;;;;;;0.40;0.40;;;;;;;15.66;87.03;97449.81;5054953;28;20066;-73
2023/10/13 02:06:32;;;;;;;0.50;0.50;;;;;;;15.66;86.98;97443.59;5049422;28;20488;-73
2023/10/13 02:09:12;;;;;;;0.50;0.50;;;;;;;15.64;86.67;97445.69;5054149;28;20041;-73
2023/10/13 02:11:45;;;;;;;0.70;0.70;;;;;;;15.65;86.99;97445.47;5052960;28;20091;-74
2023/10/13 02:14:16;;;;;;;0.43;0.43;;;;;;;15.67;86.97;97445.25;5050828;28;20057;-73
2023/10/13 02:16:46;;;;;;;0.55;0.55;;;;;;;15.70;87.29;97452.84;5047802;28;20126;-74
2023/10/13 02:19:15;;;;;;;0.50;0.50;;;;;;;15.69;86.90;97457.38;5058619;28;20044;-73
2023/10/13 02:21:58;;;;;;;0.45;0.45;;;;;;;15.70;87.06;97455.53;5050526;28;20052;-75
2023/10/13 02:24:29;;;;;;;0.45;0.45;;;;;;;15.72;87.07;97461.50;5063397;28;20079;-75
2023/10/13 02:27:02;;;;;;;0.40;0.40;;;;;;;15.70;86.81;97452.84;5060813;28;20055;-76
2023/10/13 02:29:30;;;;;;;0.30;0.30;;;;;;;15.75;86.69;97455.66;5063157;28;20098;-76
2023/10/13 02:31:58;;;;;;;0.40;0.40;;;;;;;15.73;86.71;97453.19;5045565;28;20535;-77
2023/10/13 02:34:25;;;;;;;0.40;0.40;;;;;;;15.67;87.15;97456.81;5080365;28;20044;-76
2023/10/13 02:36:54;;;;;;;0.43;0.43;;;;;;;15.67;87.13;97464.06;5048688;28;20085;-75
2023/10/13 02:39:25;;;;;;;0.47;0.47;;;;;;;15.71;87.30;97452.59;5058476;28;20041;-75
2023/10/13 02:41:55;;;;;;;0.52;0.52;;;;;;;15.76;86.87;97452.75;5052100;28;20588;-76
2023/10/13 02:44:27;;;;;;;0.38;0.38;;;;;;;15.68;87.21;97439.59;5054120;28;20549;-76
2023/10/13 02:46:56;;;;;;;0.30;0.30;;;;;;;15.64;87.47;97438.44;5055256;28;20374;-77
2023/10/13 02:49:26;;;;;;;0.40;0.40;;;;;;;15.61;87.80;97438.91;5051857;28;20127;-76
2023/10/13 02:51:55;;;;;;;0.50;0.50;;;;;;;15.62;87.88;97432.47;5056115;28;20037;-75
2023/10/13 02:54:22;;;;;;;0.50;0.50;;;;;;;15.63;87.59;97431.41;5053553;28;20044;-74
2023/10/13 02:56:56;;;;;;;0.40;0.40;;;;;;;15.60;88.02;97421.09;5068404;28;20080;-75
2023/10/13 02:59:38;;;;;;;0.68;0.68;;;;;;;15.61;87.91;97422.75;5052530;28;20102;-75
2023/10/13 03:02:17;;;;;;;0.40;0.40;;;;;;;15.62;88.01;97428.94;5046711;28;20514;-74
2023/10/13 03:04:46;;;;;;;0.45;0.45;;;;;;;15.62;87.85;97418.19;5046728;28;20069;-74
2023/10/13 03:07:15;;;;;;;0.50;0.50;;;;;;;15.61;88.00;97417.38;5053592;28;20053;-74
2023/10/13 03:09:50;;;;;;;0.45;0.45;;;;;;;15.62;88.23;97418.19;5057133;28;20049;-73
2023/10/13 03:12:17;;;;;;;0.50;0.50;;;;;;;15.60;88.24;97414.91;5048773;28;20032;-75
2023/10/13 03:14:48;;;;;;;0.40;0.40;;;;;;;15.58;88.35;97414.31;5058739;28;20058;-74
2023/10/13 03:17:17;;;;;;;0.40;0.40;;;;;;;15.60;88.56;97414.91;5050135;28;20140;-75
2023/10/13 03:19:49;;;;;;;0.60;0.60;;;;;;;15.59;88.42;97419.47;5049332;28;20491;-75
2023/10/13 03:22:30;;;;;;;0.47;0.47;;;;;;;15.62;88.41;97412.81;5050655;28;20037;-75
2023/10/13 03:25:05;;;;;;;0.50;0.50;;;;;;;15.62;88.36;97408.25;5056692;28;20049;-76
2023/10/13 03:27:41;;;;;;;0.40;0.40;;;;;;;15.63;88.48;97415.28;5057356;28;20045;-75
2023/10/13 03:30:14;;;;;;;0.30;0.30;;;;;;;15.65;88.57;97404.28;5054376;28;20158;-75
2023/10/13 03:32:43;;;;;;;0.55;0.55;;;;;;;15.64;88.50;97421.47;5054404;28;20033;-75
2023/10/13 03:35:23;;;;;;;0.57;0.57;;;;;;;15.59;88.65;97408.69;5049360;28;20102;-75
2023/10/13 03:37:51;;;;;;;0.50;0.50;;;;;;;15.59;88.74;97397.94;5053740;28;20056;-75
2023/10/13 03:43:04;;;;;;;0.52;0.52;;;;;;;15.60;88.98;97404.97;5051320;28;20114;-75
2023/10/13 03:45:38;;;;;;;0.60;0.60;;;;;;;15.60;89.02;97398.75;5056227;28;20103;-75
2023/10/13 03:48:09;;;;;;;0.70;0.70;;;;;;;15.60;89.15;97386.13;5055082;28;20745;-74
2023/10/13 03:50:46;;;;;;;0.43;0.43;;;;;;;15.63;89.02;97380.28;5055715;28;20469;-76
2023/10/13 03:53:14;;;;;;;0.60;0.60;;;;;;;15.62;89.19;97393.97;5054643;28;20519;-77
2023/10/13 03:55:48;;;;;;;0.50;0.50;;;;;;;15.61;88.98;97390.47;5054608;28;20048;-76
2023/10/13 03:58:16;;;;;;;0.20;0.13;;;;;;;15.60;89.16;97388.00;5055546;28;20595;-75
2023/10/13 04:00:46;;;;;;;0.40;0.40;;;;;;;15.60;89.37;97382.63;5059721;28;20064;-75
2023/10/13 04:03:16;;;;;;;0.40;0.40;;;;;;;15.63;89.16;97385.69;5060788;28;20041;-74
2023/10/13 04:06:00;;;;;;;0.40;0.40;;;;;;;15.63;89.43;97379.47;5057823;28;20063;-75
2023/10/13 04:09:39;;;;;;;0.70;0.70;;;;;;;15.61;89.41;97382.38;5058159;28;20657;-74
2023/10/13 04:12:19;;;;;;;0.40;0.40;;;;;;;15.63;89.49;97390.22;5061408;28;20411;-75
2023/10/13 04:17:45;;;;;;;0.50;0.50;;;;;;;15.62;89.47;97392.09;5059329;28;20123;-76
2023/10/13 04:20:13;;;;;;;0.40;0.40;;;;;;;15.62;89.44;97396.66;5063862;28;20120;-74
2023/10/13 04:25:38;;;;;;;0.40;0.40;;;;;;;15.60;89.66;97378.06;5059077;28;20059;-74
2023/10/13 04:30:58;;;;;;;0.43;0.43;;;;;;;15.62;89.58;97377.84;5043660;28;20064;-74
2023/10/13 04:33:35;;;;;;;0.40;0.40;;;;;;;15.63;89.79;97376.78;5052576;28;20500;-76
2023/10/13 04:36:13;;;;;;;0.50;0.50;;;;;;;15.63;89.83;97374.91;5051109;28;20045;-76
2023/10/13 04:38:55;;;;;;;0.50;0.50;;;;;;;15.64;89.89;97378.44;5057840;28;20056;-74
2023/10/13 04:41:31;;;;;;;0.57;0.57;;;;;;;15.63;89.96;97371.41;5057559;28;20048;-74
2023/10/13 04:44:04;;;;;;;0.50;0.50;;;;;;;15.65;90.10;97356.66;5056422;28;20051;-75
2023/10/13 04:47:07;;;;;;;0.60;0.60;;;;;;;15.65;89.84;97361.22;5059199;28;20053;-77
2023/10/13 04:49:51;;;;;;;0.47;0.47;;;;;;;15.67;90.26;97368.03;5059253;28;20132;-76
2023/10/13 04:52:50;;;;;;;0.45;0.45;;;;;;;15.67;90.17;97365.34;5060060;28;20041;-77
2023/10/13 04:55:32;;;;;;;0.80;0.80;;;;;;;15.68;90.11;97350.81;5059643;28;20048;-75
2023/10/13 04:58:11;;;;;;;0.50;0.50;;;;;;;15.69;90.00;97355.13;5058319;28;20040;-75
2023/10/13 05:01:23;;;;;;;0.40;0.40;;;;;;;15.69;90.12;97351.63;5050511;28;20045;-76
2023/10/13 05:04:08;;;;;;;0.40;0.40;;;;;;;15.69;90.15;97346.25;5058056;28;20041;-77
2023/10/13 05:46:20;;;;;;;0.35;0.35;;;;;;;15.79;90.20;97358.06;5054363;28;20052;-75
2023/10/13 05:48:54;;;;;;;0.40;0.40;;;;;;;15.84;90.09;97361.94;5056066;28;20123;-75
2023/10/13 05:51:43;;;;;;;0.43;0.43;;;;;;;15.87;89.88;97361.47;5054283;28;20131;-76
2023/10/13 06:30:41;;;;;;;0.40;0.40;;;;;;;16.10;89.21;97377.59;4995776;28;20145;-76
2023/10/13 06:33:11;;;;;;;0.38;0.38;;;;;;;16.13;88.96;97371.75;5030366;28;20059;-76
2023/10/13 06:35:41;;;;;;;0.50;0.50;;;;;;;16.17;88.98;97380.19;5060348;28;20053;-75
2023/10/13 06:38:20;;;;;;;0.30;0.30;;;;;;;16.19;89.05;97370.84;5065845;28;20416;-75
2023/10/13 06:40:50;;;;;;;0.80;0.80;;;;;;;16.19;89.10;97362.75;5071172;28;20048;-75
2023/10/13 06:43:21;;;;;;;0.50;0.50;;;;;;;16.25;88.74;97363.69;5067972;28;20097;-75
2023/10/13 06:46:00;;;;;;;0.57;0.57;;;;;;;16.28;88.45;97363.22;5067139;28;20508;-75
2023/10/13 06:48:32;;;;;;;0.60;0.60;;;;;;;16.30;88.48;97353.81;5060871;28;20120;-76
2023/10/13 06:51:04;;;;;;;0.40;0.40;;;;;;;16.33;88.22;97349.84;5061065;28;20041;-76
2023/10/13 06:53:37;;;;;;;0.35;0.35;;;;;;;16.35;88.14;97348.56;5058924;28;20119;-76
2023/10/13 06:56:09;;;;;;;0.45;0.45;;;;;;;16.38;88.02;97350.78;5058042;28;20040;-76
2023/10/13 06:58:39;;;;;;;0.38;0.38;;;;;;;16.39;87.93;97349.72;5058838;28;20053;-76
2023/10/13 07:01:14;;;;;;;0.50;0.50;;;;;;;16.43;87.57;97350.88;5056686;28;20068;-76
2023/10/13 07:03:43;;;;;;;0.25;0.25;;;;;;;16.44;87.63;97349.81;5056701;28;20661;-76
2023/10/13 07:06:17;;;;;;;0.55;0.55;;;;;;;16.47;87.24;97340.44;5054094;28;20516;-75
2023/10/13 07:08:51;;;;;;;0.60;0.60;;;;;;;16.50;87.21;97339.97;5060759;28;20158;-75
2023/10/13 07:11:32;;;;;;;0.40;0.40;;;;;;;16.54;86.97;97338.44;5056554;28;20558;-75
2023/10/13 07:14:09;;;;;;;0.50;0.50;;;;;;;16.59;86.70;97335.03;5063612;28;20127;-76
2023/10/13 07:16:46;;;;;;;0.60;0.60;;;;;;;16.66;86.28;97338.44;5061727;28;20068;-75
2023/10/13 07:19:17;;;;;;;0.32;0.32;;;;;;;16.68;86.16;97331.75;5054133;28;20520;-75
2023/10/13 07:21:48;;;;;;;0.50;0.50;;;;;;;16.73;86.01;97334.53;5059383;28;20516;-76
2023/10/13 07:24:15;;;;;;;0.40;0.40;;;;;;;16.76;85.59;97334.06;5061799;28;20091;-75
2023/10/13 07:26:45;;;;;;;0.32;0.32;;;;;;;16.82;85.65;97337.66;5059580;28;20056;-75
2023/10/13 07:29:14;;;;;;;0.50;0.50;;;;;;;16.83;85.16;97332.03;5055388;28;20048;-75
2023/10/13 07:31:45;;;;;;;0.55;0.55;;;;;;;16.87;85.03;97330.50;5063021;28;20043;-75
2023/10/13 07:34:24;;;;;;;0.32;0.32;;;;;;;16.93;84.97;97333.28;5054330;28;20519;-75
2023/10/13 07:36:55;;;;;;;0.60;0.60;;;;;;;16.96;84.74;97327.41;5059151;28;20036;-77
2023/10/13 07:39:23;;;;;;;0.30;0.30;;;;;;;16.99;84.19;97338.53;5059612;28;20048;-76
2023/10/13 07:41:54;;;;;;;0.50;0.50;;;;;;;17.01;84.49;97336.44;5058193;28;20055;-76
2023/10/13 07:44:28;;;;;;;0.22;0.22;;;;;;;17.00;84.43;97325.88;5064888;28;20412;-76
2023/10/13 07:47:02;;;;;;;0.25;0.25;;;;;;;17.01;84.67;97324.81;5064550;28;20040;-75
2023/10/13 07:49:32;;;;;;;0.28;0.28;;;;;;;16.99;84.79;97326.94;5062487;28;20060;-75
2023/10/13 07:52:14;;;;;;;0.50;0.50;;;;;;;16.98;84.97;97331.50;5062044;28;20137;-75
2023/10/13 07:54:44;;;;;;;0.65;0.52;;;;;;;16.99;84.54;97326.94;5060901;28;20059;-75
2023/10/13 07:57:14;;;;;;;0.40;0.40;;;;;;;17.05;84.62;97321.38;5062270;28;20040;-76
2023/10/13 07:59:49;;;;;;;0.47;0.47;;;;;;;17.13;83.51;97317.50;5054426;28;20536;-76
2023/10/13 08:05:00;;;;;;;0.40;0.40;;;;;;;17.26;82.86;97311.75;5056398;28;20045;-76
2023/10/13 08:07:28;;;;;;;0.32;0.32;;;;;;;17.29;82.84;97313.16;5054522;28;20045;-76
2023/10/13 08:09:59;;;;;;;0.35;0.35;;;;;;;17.31;82.26;97308.34;5051741;28;20049;-76
2023/10/13 08:12:27;;;;;;;0.43;0.43;;;;;;;17.35;80.99;97314.88;5057808;28;20052;-75
2023/10/13 08:15:12;;;;;;;0.52;0.52;;;;;;;17.37;80.88;97307.34;5053987;28;20110;-75
2023/10/13 08:17:44;;;;;;;0.22;0.22;;;;;;;17.40;80.58;97312.28;5059691;28;20465;-76
2023/10/13 08:20:15;;;;;;;0.40;0.40;;;;;;;17.42;80.08;97313.66;5052372;28;20517;-76
2023/10/13 08:22:47;;;;;;;0.40;0.40;;;;;;;17.46;79.82;97319.38;5055099;28;20045;-76
2023/10/13 08:25:24;;;;;;;0.60;0.60;;;;;;;17.50;79.27;97312.44;5061020;28;20049;-75
2023/10/13 08:30:55;;;;;;;0.40;0.40;;;;;;;17.55;77.52;97324.13;5057200;28;20458;-75
2023/10/13 08:33:27;;;;;;;0.30;0.17;;;;;;;17.60;77.31;97328.78;5061880;28;20463;-76
2023/10/13 08:36:27;;;;;;;0.47;0.47;;;;;;;17.63;76.67;97327.53;5056935;28;20706;-75
2023/10/13 08:38:56;;;;;;;0.43;0.43;;;;;;;17.69;76.12;97327.34;5054696;28;20053;-76
2023/10/13 08:41:29;;;;;;;0.40;0.40;;;;;;;17.72;75.70;97339.53;5053160;28;20098;-75
2023/10/13 08:44:04;;;;;;;0.52;0.52;;;;;;;17.79;75.49;97332.06;5051713;28;20112;-76
2023/10/13 08:46:51;;;;;;;0.40;0.40;;;;;;;17.83;75.49;97331.34;5054568;28;20048;-75
2023/10/13 08:49:23;;;;;;;0.50;0.50;;;;;;;17.84;75.62;97329.47;5052291;28;20467;-76
2023/10/13 08:52:05;;;;;;;0.50;0.50;;;;;;;17.86;75.14;97327.31;5058295;28;20057;-75
2023/10/13 08:54:45;;;;;;;0.38;0.38;;;;;;;17.91;75.42;97338.22;5055526;28;20075;-75
2023/10/13 08:57:34;;;;;;;0.40;0.40;;;;;;;17.93;74.51;97338.78;5056488;28;20044;-75
2023/10/13 09:03:28;;;;;;;0.30;0.30;;;;;;;18.09;74.61;97323.59;5058392;28;20072;-75
2023/10/13 09:06:06;;;;;;;0.38;0.38;;;;;;;18.22;72.96;97329.47;5053453;28;20048;-75
2023/10/13 09:08:45;;;;;;;0.43;0.43;;;;;;;18.30;72.35;97322.81;5052546;28;20090;-76
2023/10/13 09:11:12;;;;;;;0.22;0.22;;;;;;;18.36;72.48;97315.59;5054477;28;20805;-76
2023/10/13 09:13:47;;;;;;;0.40;0.40;;;;;;;18.39;72.24;97320.47;5052051;28;20060;-76
2023/10/13 09:16:22;;;;;;;0.47;0.47;;;;;;;18.41;72.25;97318.34;5056487;28;20044;-76
2023/10/13 09:18:52;;;;;;;0.65;0.65;;;;;;;18.45;72.03;97320.31;5051350;28;20048;-75
2023/10/13 09:21:43;;;;;;;0.50;0.50;;;;;;;18.49;72.23;97324.13;5056273;28;20048;-75
2023/10/13 09:24:21;;;;;;;0.20;0.20;;;;;;;18.52;72.19;97333.63;5048757;28;20404;-75
2023/10/13 09:26:56;;;;;;;0.57;0.40;;;;;;;18.56;71.01;97327.47;5058271;28;20177;-75
2023/10/13 09:29:24;;;;;;;0.40;0.40;;;;;;;18.58;70.04;97309.13;5053225;28;20068;-75
2023/10/13 09:32:01;;;;;;;0.40;0.40;;;;;;;18.65;68.94;97308.94;5054800;28;20041;-75
2023/10/13 09:34:31;;;;;;;0.40;0.40;;;;;;;18.69;68.62;97310.88;5054718;28;20033;-75
2023/10/13 09:37:03;;;;;;;0.60;0.40;;;;;;;18.77;68.39;97306.13;5048542;28;20514;-75
2023/10/13 09:39:34;;;;;;;0.38;0.38;;;;;;;18.78;68.80;97308.56;5058761;28;20041;-75
2023/10/13 09:42:03;;;;;;;0.50;0.50;;;;;;;18.79;68.18;97315.59;5050651;28;20073;-76
2023/10/13 09:44:31;;;;;;;0.35;0.35;;;;;;;18.80;68.48;97311.81;5053693;28;20045;-75
2023/10/13 09:47:07;;;;;;;0.30;0.30;;;;;;;18.80;68.76;97297.47;5049653;28;20572;-75
2023/10/13 09:49:45;;;;;;;0.35;0.35;;;;;;;18.82;67.96;97292.63;5054455;28;20118;-75
2023/10/13 09:52:20;;;;;;;0.38;0.38;;;;;;;18.83;67.74;97291.56;5051833;28;20041;-75
2023/10/13 09:54:59;;;;;;;0.63;0.63;;;;;;;18.83;67.71;97296.97;5050218;28;20052;-75
2023/10/13 09:57:35;;;;;;;0.50;0.50;;;;;;;18.81;67.80;97291.00;5050749;28;20051;-75
2023/10/13 10:00:46;;;;;;;0.47;0.47;;;;;;;18.81;67.29;97283.69;5051541;28;20516;-76
2023/10/13 10:03:30;;;;;;;0.40;0.40;;;;;;;18.79;67.13;97285.84;5048401;28;20467;-75
2023/10/13 10:06:04;;;;;;;;;;;;;;;18.83;67.26;97288.84;5050678;28;20064;-74
2023/10/13 10:08:34;;;;;;;0.40;0.40;;;;;;;18.82;66.85;97281.81;5049222;28;19921;-77
2023/10/13 10:11:23;;;;;;;0.38;0.38;;;;;;;18.84;66.41;97277.78;5052222;28;20124;-76
2023/10/13 10:13:57;;;;;;;0.50;0.50;;;;;;;18.89;65.84;97279.75;5053979;28;20164;-75
2023/10/13 10:16:36;;;;;;;0.50;0.50;;;;;;;18.92;65.87;97271.09;5052800;28;20041;-76
2023/10/13 10:19:03;;;;;;;0.40;0.40;;;;;;;18.93;64.92;97265.44;5053426;28;20102;-74
2023/10/13 10:21:36;;;;;;;0.35;0.35;;;;;;;18.94;64.75;97269.78;5052158;28;20127;-76
2023/10/13 10:24:14;;;;;;;0.20;0.17;;;;;;;18.96;65.05;97278.47;5049840;28;20471;-76
2023/10/13 10:26:52;;;;;;;0.38;0.38;;;;;;;18.99;63.64;97267.13;5050060;28;20526;-76
2023/10/13 10:29:20;;;;;;;0.40;0.40;;;;;;;19.07;63.03;97271.25;5050648;28;20555;-75
2023/10/13 10:31:48;;;;;;;0.30;0.30;;;;;;;19.11;63.34;97275.06;5048120;28;20152;-75
2023/10/13 10:34:18;;;;;;;0.40;0.40;;;;;;;19.19;62.75;97274.63;5048752;28;20044;-75
2023/10/13 10:36:48;;;;;;;0.43;0.43;;;;;;;19.29;62.59;97272.00;5053097;28;20041;-76
2023/10/13 10:39:18;;;;;;;0.40;0.40;;;;;;;19.37;64.38;97263.38;5054117;28;20120;-75
2023/10/13 10:41:51;;;;;;;0.80;0.80;;;;;;;19.44;64.91;97263.97;5056089;28;20049;-75
2023/10/13 10:44:33;;;;;;;0.73;0.73;;;;;;;19.52;65.30;97259.22;5054293;28;20037;-76
2023/10/13 10:47:19;;;;;;;0.10;0.10;;;;;;;19.70;65.50;97261.50;5052396;28;20467;-72
2023/10/13 10:49:48;;;;;;;0.30;0.30;;;;;;;19.79;65.95;97251.81;5050502;28;20076;-72
2023/10/13 10:52:21;;;;;;;0.50;0.50;;;;;;;19.88;65.76;97244.00;5052973;28;20065;-75
2023/10/13 10:55:00;;;;;;;0.30;0.25;;;;;;;19.97;65.76;97239.69;5056531;28;20436;-75
2023/10/13 10:57:29;;;;;;;0.40;0.40;;;;;;;19.97;65.20;97226.16;5054017;28;20049;-75
2023/10/13 11:00:11;;;;;;;0.10;0.10;;;;;;;19.97;64.85;97218.03;5054232;28;20389;-75
2023/10/13 11:02:39;;;;;;;0.25;0.25;;;;;;;19.97;65.04;97218.03;5051024;28;20048;-75
2023/10/13 11:05:09;;;;;;;0.40;0.40;;;;;;;20.00;64.91;97212.91;5060420;28;20152;-77
2023/10/13 11:07:37;;;;;;;0.68;0.68;;;;;;;20.08;64.16;97200.72;5053980;28;20115;-75
2023/10/13 11:10:18;;;;;;;0.50;0.50;;;;;;;20.26;63.74;97197.53;5055531;28;20052;-75
2023/10/13 11:12:55;;;;;;;0.25;0.25;;;;;;;20.60;62.65;97187.09;5053528;28;20125;-77
2023/10/13 11:15:26;;;;;;;0.30;0.30;;;;;;;20.94;61.68;97178.44;5055580;28;21007;-75
2023/10/13 11:17:55;;;;;;;0.40;0.40;;;;;;;21.36;60.62;97187.16;5056295;28;20123;-76
2023/10/13 11:20:26;;;;;;;0.40;0.40;;;;;;;21.81;58.12;97183.50;5057828;28;20500;-76
2023/10/13 11:22:54;;;;;;;0.30;0.30;;;;;;;22.38;55.58;97175.97;5056802;28;20496;-76
2023/10/13 11:25:29;;;;;;;0.43;0.43;;;;;;;22.63;55.73;97190.22;5055769;28;20041;-76
2023/10/13 11:27:59;;;;;;;0.52;0.52;;;;;;;22.88;54.49;97181.09;5055307;28;20116;-76
2023/10/13 11:30:40;;;;;;;0.22;0.22;;;;;;;22.96;49.42;97171.50;5056091;28;20045;-78
2023/10/13 11:33:10;;;;;;;0.30;0.30;;;;;;;23.14;48.60;97178.19;5054750;28;20131;-75
2023/10/13 11:35:55;;;;;;;0.30;0.30;;;;;;;23.39;47.73;97165.16;5054854;28;20029;-75
2023/10/13 11:38:27;;;;;;;0.25;0.25;;;;;;;23.58;46.14;97159.81;5062115;28;20071;-76
2023/10/13 11:41:15;;;;;;;0.10;0.10;;;;;;;23.68;45.46;97154.25;5060342;28;20456;-75
2023/10/13 11:43:57;;;;;;;0.30;0.30;;;;;;;23.76;44.38;97137.28;5066055;28;20543;-76
2023/10/13 11:46:55;;;;;;;0.30;0.30;;;;;;;23.58;44.39;97127.09;5055317;28;20037;-76
2023/10/13 11:49:33;;;;;;;0.40;0.40;;;;;;;23.70;45.19;97137.59;5061581;28;20051;-76
2023/10/13 11:52:17;;;;;;;0.30;0.30;;;;;;;23.85;44.87;97139.34;5057491;28;20048;-76
2023/10/13 11:54:46;;;;;;;0.30;0.30;;;;;;;24.04;44.17;97135.56;5059161;28;20056;-76
2023/10/13 11:57:19;;;;;;;0.32;0.32;;;;;;;24.24;44.16;97137.22;5063117;28;20045;-76
2023/10/13 11:59:55;;;;;;;0.38;0.38;;;;;;;24.45;43.90;97137.75;5058953;28;20140;-75
2023/10/13 12:05:17;;;;;;;0.50;0.50;;;;;;;24.11;43.86;97129.72;5054229;28;20076;-76
2023/10/13 12:07:49;;;;;;;0.32;0.32;;;;;;;23.90;44.55;97121.00;5061640;28;20041;-76
2023/10/13 12:10:32;;;;;;;0.20;0.20;;;;;;;23.46;45.47;97115.78;5059523;28;20068;-75
2023/10/13 12:13:07;;;;;;;0.30;0.30;;;;;;;23.16;46.52;97116.88;5058996;28;20045;-77
2023/10/13 12:15:48;;;;;;;0.20;0.20;;;;;;;23.04;46.89;97119.19;5060451;28;20044;-74
2023/10/13 12:18:19;;;;;;;0.20;0.20;;;;;;;23.16;47.65;97116.88;5052201;28;20053;-76
2023/10/13 12:20:47;;;;;;;0.52;0.30;;;;;;;23.22;46.91;97107.56;5052784;28;20111;-76
2023/10/13 12:23:20;;;;;;;0.20;0.20;;;;;;;23.17;47.08;97113.06;5050308;28;20044;-75
2023/10/13 12:26:14;;;;;;;0.22;0.22;;;;;;;23.15;47.08;97109.03;5051320;28;20037;-76
2023/10/13 12:28:51;;;;;;;0.30;0.30;;;;;;;23.12;47.14;97126.75;5052028;28;20055;-76
2023/10/13 12:31:26;;;;;;;0.40;0.40;;;;;;;23.08;47.51;97103.88;5050780;28;20038;-76
2023/10/13 12:33:57;;;;;;;0.25;0.25;;;;;;;23.01;47.65;97103.41;5050568;28;20053;-76
2023/10/13 12:36:31;;;;;;;0.30;0.30;;;;;;;22.99;46.30;97092.81;5051004;28;20072;-75
2023/10/13 12:50:14;;;;;;;0.22;0.22;;;;;;;23.23;45.77;97092.03;5051292;28;20526;-76
2023/10/13 12:52:45;;;;;;;0.40;0.40;;;;;;;23.30;45.84;97076.16;5048329;28;20048;-74
2023/10/13 12:55:19;;;;;;;0.22;0.22;;;;;;;23.41;45.73;97088.56;5047516;28;20063;-73
2023/10/13 12:57:46;;;;;;;0.30;0.30;;;;;;;23.63;45.44;97077.19;5050179;28;20061;-75
2023/10/13 13:00:25;;;;;;;0.30;0.30;;;;;;;23.61;44.83;97061.13;5050555;28;20056;-75
2023/10/13 13:02:55;;;;;;;0.22;0.22;;;;;;;23.64;45.16;97063.28;5052281;28;20033;-74
2023/10/13 13:05:28;;;;;;;0.52;0.40;;;;;;;23.66;45.05;97060.25;5052301;28;20037;-75
2023/10/13 13:07:56;;;;;;;0.28;0.28;;;;;;;23.67;43.87;97050.97;5054145;28;20041;-74
2023/10/13 13:10:34;;;;;;;0.25;0.25;;;;;;;23.60;43.56;97055.97;5056605;28;20488;-73
2023/10/13 13:13:04;;;;;;;0.30;0.30;;;;;;;23.66;44.17;97041.19;5055001;28;20044;-74
2023/10/13 13:15:33;;;;;;;0.60;0.60;;;;;;;23.87;43.95;97033.53;5056347;28;20496;-74
2023/10/13 13:18:09;;;;;;;0.28;0.28;;;;;;;23.78;44.16;97031.44;5053301;28;20053;-74
2023/10/13 13:20:43;;;;;;;0.30;0.30;;;;;;;23.81;43.74;97032.78;5049744;28;20033;-73
2023/10/13 13:23:12;;;;;;;0.30;0.30;;;;;;;23.87;44.09;97028.91;5049200;28;20128;-73
2023/10/13 13:25:43;;;;;;;0.30;0.30;;;;;;;23.74;44.15;97022.25;5050202;28;20476;-74
2023/10/13 13:28:11;;;;;;;0.35;0.35;;;;;;;23.69;44.46;97016.84;5049209;28;20052;-74
2023/10/13 13:30:41;;;;;;;0.30;0.30;;;;;;;23.62;43.90;97013.69;5050344;28;20048;-74
2023/10/13 13:33:12;;;;;;;0.40;0.40;;;;;;;23.66;43.96;97017.47;5050236;28;20047;-75
2023/10/13 13:35:42;;;;;;;0.30;0.30;;;;;;;23.73;43.44;97028.00;5049902;28;20047;-75
2023/10/13 13:38:22;;;;;;;0.25;0.20;;;;;;;23.75;43.58;97026.59;5050822;28;20055;-75
2023/10/13 13:40:53;;;;;;;0.22;0.20;;;;;;;23.90;42.93;97035.66;5051249;28;20407;-75
2023/10/13 13:43:50;;;;;;;0.30;0.30;;;;;;;23.87;43.00;97023.44;5048521;28;20053;-75
2023/10/13 13:46:24;;;;;;;0.30;0.30;;;;;;;23.86;42.58;97021.03;5049701;28;20045;-75
2023/10/13 13:48:58;;;;;;;0.30;0.30;;;;;;;23.82;42.69;97018.06;5050679;28;20028;-74
2023/10/13 13:51:27;;;;;;;0.20;0.20;;;;;;;23.73;42.85;97004.28;5050748;28;20977;-75
2023/10/13 13:53:56;;;;;;;0.28;0.28;;;;;;;23.76;43.35;97020.06;5052802;28;20049;-74
2023/10/13 13:56:25;;;;;;;0.30;0.30;;;;;;;23.68;43.15;97026.13;5050008;28;20045;-75